Maersk Duisburg — DHPD — position and weather

sailwx.info

Track history (hours):
 
Tides and Currents Weather Stations Pressure Air Temp Water Temp Dewpoint Dewpoint Depression Visibility Wind Speed Wind Dir Waves Ship Positions

Maersk Duisburg

Last reported at 2018-Apr-20 15:20 UTC. Time now 2018-Apr-21 06:12 UTC.
Position N 43°52' E 010°14'.

Length 292.1 m; beam 32.3 m; draft 13.5 m.

Type: Cargo ship. MMSI: 211110000.

Date/timePositionNaut miles runAvg speedWind from/ knotsBaromVisibWave heightAir tempDewpointWater temp
2018-Apr-20 15:20N 43°52' E 010°14'0 0.0
2018-Apr-20 14:59N 43°52' E 010°14'0 0.0
2018-Apr-20 14:30N 43°52' E 010°14'0 0.0
2018-Apr-20 14:00N 43°52' E 010°14'0 0.0
2018-Apr-20 13:30N 43°52' E 010°14'0 0.0
2018-Apr-20 12:00N 43°52' E 010°14'0 0.0
2018-Apr-20 11:30N 43°52' E 010°14'0 0.0
2018-Apr-20 11:00N 43°52' E 010°14'0 0.0
2018-Apr-20 10:30N 43°52' E 010°14'0 0.0
2018-Apr-20 10:00N 43°52' E 010°14'0 0.0
2018-Apr-20 09:30N 43°52' E 010°14'0 0.0
2018-Apr-20 09:00N 43°52' E 010°14'0 0.0
2018-Apr-20 08:30N 43°52' E 010°14'0 0.0
2018-Apr-20 07:30N 43°52' E 010°14'  
2018-Apr-17 16:19N 43°52' E 010°14'1 2.3
2018-Apr-17 16:00N 43°52' E 010°13'2 3.4
2018-Apr-17 15:30N 43°50' E 010°14'612.6
2018-Apr-17 15:00N 43°44' E 010°15'918.3
2018-Apr-17 14:30N 43°53' E 010°12'713.9
2018-Apr-17 14:00N 43°58' E 010°05'2 3.9
2018-Apr-17 13:30N 43°59' E 010°04'0 0.0
2018-Apr-17 13:00N 43°59' E 010°04'612.4
2018-Apr-17 12:30N 43°55' E 010°09'4 8.3
2018-Apr-17 12:00N 43°52' E 010°13'1 2.2
2018-Apr-17 11:31N 43°53' E 010°12'1223.5
2018-Apr-17 11:01N 43°41' E 010°12'815.1
2018-Apr-17 10:31N 43°48' E 010°13'1019.4
2018-Apr-17 10:01N 43°56' E 010°04'1019.3
2018-Apr-17 09:30N 43°59' E 009°52'3 6.2
2018-Apr-17 09:01N 43°58' E 009°56'713.8
2018-Apr-17 08:30N 43°56' E 010°05'510.2
2018-Apr-17 08:00N 43°53' E 010°11'3 5.7
2018-Apr-17 07:30N 43°52' E 010°14'0 0.1
2018-Apr-17 07:00N 43°52' E 010°14'0 0.2
2018-Apr-17 06:30N 43°52' E 010°14'0 0.0
2018-Apr-17 06:00N 43°52' E 010°14'0 0.0
2018-Apr-16 16:07N 43°52' E 010°14'0 0.1
2018-Apr-16 16:00N 43°52' E 010°14'0 0.0
2018-Apr-16 15:30N 43°52' E 010°14'0 0.0
2018-Apr-16 15:00N 43°52' E 010°14'0 0.0
2018-Apr-16 14:30N 43°52' E 010°14'0 0.0
2018-Apr-16 14:00N 43°52' E 010°14'0 0.0
2018-Apr-16 13:30N 43°52' E 010°14'0 0.0
2018-Apr-16 13:00N 43°52' E 010°14'0 0.0
2018-Apr-16 12:30N 43°52' E 010°14'0 0.0
2018-Apr-16 12:00N 43°52' E 010°14'0 0.0
2018-Apr-16 11:30N 43°52' E 010°14'0 0.0
2018-Apr-16 11:00N 43°52' E 010°14'0 0.0
2018-Apr-16 10:30N 43°52' E 010°14'0 0.0
2018-Apr-16 10:00N 43°52' E 010°14'0 0.0
2018-Apr-16 09:30N 43°52' E 010°14'0 0.0
2018-Apr-16 09:00N 43°52' E 010°14'0 0.0
2018-Apr-16 08:30N 43°52' E 010°14'0 0.0
2018-Apr-16 08:00N 43°52' E 010°14'0 0.0
2018-Apr-16 07:30N 43°52' E 010°14'0 0.0
2018-Apr-16 07:00N 43°52' E 010°14'0 0.0
2018-Apr-16 06:30N 43°52' E 010°14'0 0.0
2018-Apr-14 07:17N 43°52' E 010°14'0 0.0
2018-Apr-13 15:26N 43°52' E 010°14'0 0.0
2018-Apr-13 15:00N 43°52' E 010°14'0 0.0
2018-Apr-13 14:30N 43°52' E 010°14'0 0.0
2018-Apr-13 14:00N 43°52' E 010°14'0 0.0
2018-Apr-13 13:30N 43°52' E 010°14'0 0.0
2018-Apr-13 13:00N 43°52' E 010°14'0 0.0
2018-Apr-13 12:30N 43°52' E 010°14'0 0.0
2018-Apr-13 12:00N 43°52' E 010°14'0 0.0
2018-Apr-13 11:30N 43°52' E 010°14'0 0.0
2018-Apr-13 11:00N 43°52' E 010°14'0 0.0
2018-Apr-13 10:30N 43°52' E 010°14'0 0.0
2018-Apr-13 10:00N 43°52' E 010°14'0 0.0
2018-Apr-13 09:30N 43°52' E 010°14'0 0.0
2018-Apr-13 09:00N 43°52' E 010°14'0 0.0
2018-Apr-13 08:30N 43°52' E 010°14'0 0.0
2018-Apr-13 08:00N 43°52' E 010°14'0 0.0
2018-Apr-13 07:30N 43°52' E 010°14'0 0.0
2018-Apr-13 07:00N 43°52' E 010°14'0 0.0
2018-Apr-12 14:58N 43°52' E 010°14'0 0.0
2018-Apr-12 14:30N 43°52' E 010°14'0 0.0
2018-Apr-12 14:00N 43°52' E 010°14'0 0.0
2018-Apr-12 13:30N 43°52' E 010°14'0 0.0
2018-Apr-12 13:00N 43°52' E 010°14'0 0.0
2018-Apr-12 12:31N 43°52' E 010°14'0 0.0
2018-Apr-12 12:00N 43°52' E 010°14'0 0.0
2018-Apr-12 11:30N 43°52' E 010°14'0 0.0
2018-Apr-12 11:00N 43°52' E 010°14'0 0.0
2018-Apr-12 10:30N 43°52' E 010°14'0 0.0
2018-Apr-12 10:00N 43°52' E 010°14'0 0.0
2018-Apr-12 09:30N 43°52' E 010°14'0 0.0
2018-Apr-12 09:00N 43°52' E 010°14'0 0.0
2018-Apr-12 08:30N 43°52' E 010°14'0 0.0
2018-Apr-12 08:00N 43°52' E 010°14'0 0.0
2018-Apr-12 07:30N 43°52' E 010°14'0 0.0
2018-Apr-12 07:00N 43°52' E 010°14'0 0.0
2018-Apr-12 06:30N 43°52' E 010°14'0 0.0
2018-Apr-11 15:25N 43°52' E 010°14'0 0.0
2018-Apr-11 15:00N 43°52' E 010°14'0 0.0
2018-Apr-11 14:30N 43°52' E 010°14'0 0.0
2018-Apr-11 14:00N 43°52' E 010°14'0 0.0
2018-Apr-11 13:30N 43°52' E 010°14'0 0.0
2018-Apr-11 13:00N 43°52' E 010°14'  
Track history (hours):
 
Tides and Currents Weather Stations Pressure Air Temp Water Temp Dewpoint Dewpoint Depression Visibility Wind Speed Wind Dir Waves Ship Positions

Maersk Duisburg

Last reported at 2018-Apr-20 15:20 UTC. Time now 2018-Apr-21 06:12 UTC.
Position N 43°52' E 010°14'.

Length 292.1 m; beam 32.3 m; draft 13.5 m.

Type: Cargo ship. MMSI: 211110000.

Date/timePositionNaut miles runAvg speedWind from/ knotsBaromVisibWave heightAir tempDewpointWater temp
2018-Apr-20 15:20N 43°52' E 010°14'0 0.0
2018-Apr-20 14:59N 43°52' E 010°14'0 0.0
2018-Apr-20 14:30N 43°52' E 010°14'0 0.0
2018-Apr-20 14:00N 43°52' E 010°14'0 0.0
2018-Apr-20 13:30N 43°52' E 010°14'0 0.0
2018-Apr-20 12:00N 43°52' E 010°14'0 0.0
2018-Apr-20 11:30N 43°52' E 010°14'0 0.0
2018-Apr-20 11:00N 43°52' E 010°14'0 0.0
2018-Apr-20 10:30N 43°52' E 010°14'0 0.0
2018-Apr-20 10:00N 43°52' E 010°14'0 0.0
2018-Apr-20 09:30N 43°52' E 010°14'0 0.0
2018-Apr-20 09:00N 43°52' E 010°14'0 0.0
2018-Apr-20 08:30N 43°52' E 010°14'0 0.0
2018-Apr-20 07:30N 43°52' E 010°14'  
2018-Apr-17 16:19N 43°52' E 010°14'1 2.3
2018-Apr-17 16:00N 43°52' E 010°13'2 3.4
2018-Apr-17 15:30N 43°50' E 010°14'612.6
2018-Apr-17 15:00N 43°44' E 010°15'918.3
2018-Apr-17 14:30N 43°53' E 010°12'713.9
2018-Apr-17 14:00N 43°58' E 010°05'2 3.9
2018-Apr-17 13:30N 43°59' E 010°04'0 0.0
2018-Apr-17 13:00N 43°59' E 010°04'612.4
2018-Apr-17 12:30N 43°55' E 010°09'4 8.3
2018-Apr-17 12:00N 43°52' E 010°13'1 2.2
2018-Apr-17 11:31N 43°53' E 010°12'1223.5
2018-Apr-17 11:01N 43°41' E 010°12'815.1
2018-Apr-17 10:31N 43°48' E 010°13'1019.4
2018-Apr-17 10:01N 43°56' E 010°04'1019.3
2018-Apr-17 09:30N 43°59' E 009°52'3 6.2
2018-Apr-17 09:01N 43°58' E 009°56'713.8
2018-Apr-17 08:30N 43°56' E 010°05'510.2
2018-Apr-17 08:00N 43°53' E 010°11'3 5.7
2018-Apr-17 07:30N 43°52' E 010°14'0 0.1
2018-Apr-17 07:00N 43°52' E 010°14'0 0.2
2018-Apr-17 06:30N 43°52' E 010°14'0 0.0
2018-Apr-17 06:00N 43°52' E 010°14'0 0.0
2018-Apr-16 16:07N 43°52' E 010°14'0 0.1
2018-Apr-16 16:00N 43°52' E 010°14'0 0.0
2018-Apr-16 15:30N 43°52' E 010°14'0 0.0
2018-Apr-16 15:00N 43°52' E 010°14'0 0.0
2018-Apr-16 14:30N 43°52' E 010°14'0 0.0
2018-Apr-16 14:00N 43°52' E 010°14'0 0.0
2018-Apr-16 13:30N 43°52' E 010°14'0 0.0
2018-Apr-16 13:00N 43°52' E 010°14'0 0.0
2018-Apr-16 12:30N 43°52' E 010°14'0 0.0
2018-Apr-16 12:00N 43°52' E 010°14'0 0.0
2018-Apr-16 11:30N 43°52' E 010°14'0 0.0
2018-Apr-16 11:00N 43°52' E 010°14'0 0.0
2018-Apr-16 10:30N 43°52' E 010°14'0 0.0
2018-Apr-16 10:00N 43°52' E 010°14'0 0.0
2018-Apr-16 09:30N 43°52' E 010°14'0 0.0
2018-Apr-16 09:00N 43°52' E 010°14'0 0.0
2018-Apr-16 08:30N 43°52' E 010°14'0 0.0
2018-Apr-16 08:00N 43°52' E 010°14'0 0.0
2018-Apr-16 07:30N 43°52' E 010°14'0 0.0
2018-Apr-16 07:00N 43°52' E 010°14'0 0.0
2018-Apr-16 06:30N 43°52' E 010°14'0 0.0
2018-Apr-14 07:17N 43°52' E 010°14'0 0.0
2018-Apr-13 15:26N 43°52' E 010°14'0 0.0
2018-Apr-13 15:00N 43°52' E 010°14'0 0.0
2018-Apr-13 14:30N 43°52' E 010°14'0 0.0
2018-Apr-13 14:00N 43°52' E 010°14'0 0.0
2018-Apr-13 13:30N 43°52' E 010°14'0 0.0
2018-Apr-13 13:00N 43°52' E 010°14'0 0.0
2018-Apr-13 12:30N 43°52' E 010°14'0 0.0
2018-Apr-13 12:00N 43°52' E 010°14'0 0.0
2018-Apr-13 11:30N 43°52' E 010°14'0 0.0
2018-Apr-13 11:00N 43°52' E 010°14'0 0.0
2018-Apr-13 10:30N 43°52' E 010°14'0 0.0
2018-Apr-13 10:00N 43°52' E 010°14'0 0.0
2018-Apr-13 09:30N 43°52' E 010°14'0 0.0
2018-Apr-13 09:00N 43°52' E 010°14'0 0.0
2018-Apr-13 08:30N 43°52' E 010°14'0 0.0
2018-Apr-13 08:00N 43°52' E 010°14'0 0.0
2018-Apr-13 07:30N 43°52' E 010°14'0 0.0
2018-Apr-13 07:00N 43°52' E 010°14'0 0.0
2018-Apr-12 14:58N 43°52' E 010°14'0 0.0
2018-Apr-12 14:30N 43°52' E 010°14'0 0.0
2018-Apr-12 14:00N 43°52' E 010°14'0 0.0
2018-Apr-12 13:30N 43°52' E 010°14'0 0.0
2018-Apr-12 13:00N 43°52' E 010°14'0 0.0
2018-Apr-12 12:31N 43°52' E 010°14'0 0.0
2018-Apr-12 12:00N 43°52' E 010°14'0 0.0
2018-Apr-12 11:30N 43°52' E 010°14'0 0.0
2018-Apr-12 11:00N 43°52' E 010°14'0 0.0
2018-Apr-12 10:30N 43°52' E 010°14'0 0.0
2018-Apr-12 10:00N 43°52' E 010°14'0 0.0
2018-Apr-12 09:30N 43°52' E 010°14'0 0.0
2018-Apr-12 09:00N 43°52' E 010°14'0 0.0
2018-Apr-12 08:30N 43°52' E 010°14'0 0.0
2018-Apr-12 08:00N 43°52' E 010°14'0 0.0
2018-Apr-12 07:30N 43°52' E 010°14'0 0.0
2018-Apr-12 07:00N 43°52' E 010°14'0 0.0
2018-Apr-12 06:30N 43°52' E 010°14'0 0.0
2018-Apr-11 15:25N 43°52' E 010°14'0 0.0
2018-Apr-11 15:00N 43°52' E 010°14'0 0.0
2018-Apr-11 14:30N 43°52' E 010°14'0 0.0
2018-Apr-11 14:00N 43°52' E 010°14'0 0.0
2018-Apr-11 13:30N 43°52' E 010°14'0 0.0
2018-Apr-11 13:00N 43°52' E 010°14'  

Dump ship's entire track history